Time;durP1;ratioP1;P1;durP2;ratioP2;P2;SDS_P1;SDS_P2;PMS_P1;PMS_P2;Temp;Humidity;BMP_temperature;BMP_pressure;BME280_temperature;BME280_humidity;BME280_pressure;Samples;Min_cycle;Max_cycle;Signal;HPM_P1;HPM_P2
2023/03/12 00:01:01;;;;;;;9.90;4.13;;;;;;;;;;5051063;28;20433;-81
2023/03/12 00:03:27;;;;;;;6.00;4.10;;;;;;;;;;5045284;28;20418;-81
2023/03/12 00:05:54;;;;;;;7.57;4.00;;;;;;;;;;5048518;28;20417;-82
2023/03/12 00:08:20;;;;;;;9.15;4.20;;;;;;;;;;5050650;28;20423;-82
2023/03/12 00:10:47;;;;;;;15.18;4.95;;;;;;;;;;5048741;28;20429;-81
2023/03/12 00:13:14;;;;;;;9.85;4.25;;;;;;;;;;5049754;28;20427;-81
2023/03/12 00:15:40;;;;;;;5.88;3.60;;;;;;;;;;5048043;28;20928;-81
2023/03/12 00:18:06;;;;;;;5.47;4.00;;;;;;;;;;5044549;28;20419;-81
2023/03/12 00:20:33;;;;;;;6.68;4.22;;;;;;;;;;5040467;28;20425;-81
2023/03/12 00:22:59;;;;;;;6.90;4.07;;;;;;;;;;5041241;28;20409;-81
2023/03/12 00:25:26;;;;;;;5.55;4.50;;;;;;;;;;5043764;28;20427;-81
2023/03/12 00:27:53;;;;;;;9.48;4.80;;;;;;;;;;5041211;28;20423;-81
2023/03/12 00:30:20;;;;;;;9.32;4.45;;;;;;;;;;5041113;28;20427;-81
2023/03/12 00:32:46;;;;;;;5.05;3.97;;;;;;;;;;5042778;28;20434;-81
2023/03/12 00:35:13;;;;;;;7.17;4.47;;;;;;;;;;5041896;28;20488;-81
2023/03/12 00:37:39;;;;;;;6.80;3.80;;;;;;;;;;5041004;28;20423;-81
2023/03/12 00:40:08;;;;;;;5.70;4.03;;;;;;;;;;5040379;28;20425;-81
2023/03/12 00:42:34;;;;;;;5.72;3.80;;;;;;;;;;5044880;28;20423;-81
2023/03/12 00:45:02;;;;;;;5.10;3.85;;;;;;;;;;5043732;28;20425;-81
2023/03/12 00:47:28;;;;;;;6.40;3.80;;;;;;;;;;5038508;28;21019;-81
2023/03/12 00:49:55;;;;;;;6.70;4.13;;;;;;;;;;5046422;28;20426;-81
2023/03/12 00:52:21;;;;;;;5.70;3.90;;;;;;;;;;5044503;28;20428;-81
2023/03/12 00:54:47;;;;;;;5.47;4.00;;;;;;;;;;5041716;28;20436;-81
2023/03/12 00:57:14;;;;;;;7.10;4.03;;;;;;;;;;5043798;28;20409;-81
2023/03/12 00:59:42;;;;;;;5.82;3.67;;;;;;;;;;5042945;28;20429;-81
2023/03/12 01:02:09;;;;;;;5.78;3.35;;;;;;;;;;5043588;28;21334;-81
2023/03/12 01:04:36;;;;;;;6.25;3.90;;;;;;;;;;5042754;28;20433;-81
2023/03/12 01:07:02;;;;;;;6.63;3.67;;;;;;;;;;5044108;28;20945;-81
2023/03/12 01:09:29;;;;;;;6.00;3.65;;;;;;;;;;5040379;28;20431;-81
2023/03/12 01:11:55;;;;;;;6.65;3.88;;;;;;;;;;5043672;28;20414;-81
2023/03/12 01:14:24;;;;;;;6.63;3.90;;;;;;;;;;5044009;28;20427;-81
2023/03/12 01:16:51;;;;;;;4.85;3.92;;;;;;;;;;5041440;28;20401;-81
2023/03/12 01:19:18;;;;;;;6.45;3.60;;;;;;;;;;5043699;28;20940;-81
2023/03/12 01:21:45;;;;;;;5.85;4.07;;;;;;;;;;5044630;28;20986;-81
2023/03/12 01:24:11;;;;;;;5.15;3.80;;;;;;;;;;5044018;28;20435;-81
2023/03/12 01:26:37;;;;;;;6.78;4.10;;;;;;;;;;5043230;28;20428;-81
2023/03/12 01:29:04;;;;;;;9.57;3.90;;;;;;;;;;5040682;28;20429;-81
2023/03/12 01:31:30;;;;;;;7.70;3.67;;;;;;;;;;5039565;28;20436;-81
2023/03/12 01:33:56;;;;;;;7.20;3.90;;;;;;;;;;5041656;28;20425;-81
2023/03/12 01:36:26;;;;;;;8.45;4.60;;;;;;;;;;5040382;28;20423;-81
2023/03/12 01:38:53;;;;;;;6.45;4.10;;;;;;;;;;5043177;28;20809;-81
2023/03/12 01:41:20;;;;;;;4.25;3.85;;;;;;;;;;5046540;28;20437;-81
2023/03/12 01:43:46;;;;;;;5.80;4.78;;;;;;;;;;5043865;28;20427;-81
2023/03/12 01:46:28;;;;;;;6.18;3.70;;;;;;;;;;5043524;28;20435;-81
2023/03/12 01:48:56;;;;;;;5.78;4.10;;;;;;;;;;5043698;28;20432;-81
2023/03/12 01:51:25;;;;;;;8.20;4.50;;;;;;;;;;5038688;28;20418;-81
2023/03/12 01:53:53;;;;;;;7.20;4.05;;;;;;;;;;5042781;28;20434;-81
2023/03/12 01:56:20;;;;;;;5.68;4.20;;;;;;;;;;5040471;28;20419;-81
2023/03/12 01:58:49;;;;;;;6.00;4.10;;;;;;;;;;5044443;28;20432;-81
2023/03/12 02:01:17;;;;;;;6.93;4.10;;;;;;;;;;5042808;28;20432;-81
2023/03/12 02:03:44;;;;;;;7.70;4.45;;;;;;;;;;5042010;28;20405;-82
2023/03/12 02:06:13;;;;;;;8.85;4.70;;;;;;;;;;5036471;28;20411;-81
2023/03/12 02:08:42;;;;;;;8.18;4.40;;;;;;;;;;5044447;28;20837;-82
2023/03/12 02:11:08;;;;;;;5.90;4.00;;;;;;;;;;5043112;28;20427;-81
2023/03/12 02:13:35;;;;;;;10.15;4.30;;;;;;;;;;5044762;28;20457;-81
2023/03/12 02:16:01;;;;;;;8.52;4.70;;;;;;;;;;5044782;28;20429;-82
2023/03/12 02:18:27;;;;;;;6.20;4.30;;;;;;;;;;5040359;28;20425;-81
2023/03/12 02:20:56;;;;;;;7.00;4.20;;;;;;;;;;5042687;28;20421;-81
2023/03/12 02:23:27;;;;;;;7.43;4.13;;;;;;;;;;5042617;28;20424;-82
2023/03/12 02:25:55;;;;;;;6.55;4.60;;;;;;;;;;5043424;28;20597;-81
2023/03/12 02:28:23;;;;;;;7.40;4.80;;;;;;;;;;5038206;28;20806;-81
2023/03/12 02:30:51;;;;;;;6.43;4.50;;;;;;;;;;5038503;28;20852;-81
2023/03/12 02:33:18;;;;;;;6.35;4.40;;;;;;;;;;5042033;28;20430;-81
2023/03/12 02:35:45;;;;;;;6.57;4.60;;;;;;;;;;5042539;28;20499;-81
2023/03/12 02:38:38;;;;;;;6.32;4.55;;;;;;;;;;5040431;28;20420;-81
2023/03/12 02:41:10;;;;;;;8.90;4.70;;;;;;;;;;4992948;28;20427;-81
2023/03/12 02:43:36;;;;;;;7.07;5.00;;;;;;;;;;5041555;28;20425;-81
2023/03/12 02:46:04;;;;;;;6.10;4.60;;;;;;;;;;5039178;28;20426;-82
2023/03/12 02:48:30;;;;;;;6.30;4.75;;;;;;;;;;5039597;28;20409;-81
2023/03/12 02:50:57;;;;;;;6.20;4.30;;;;;;;;;;5040533;28;20421;-82
2023/03/12 02:53:23;;;;;;;9.07;4.70;;;;;;;;;;5038582;28;20429;-81
2023/03/12 02:55:49;;;;;;;5.10;4.60;;;;;;;;;;5040449;28;20447;-81
2023/03/12 02:58:17;;;;;;;6.25;4.90;;;;;;;;;;5040637;28;20434;-82
2023/03/12 03:00:44;;;;;;;6.85;4.63;;;;;;;;;;5041291;28;20797;-81
2023/03/12 03:03:11;;;;;;;6.70;4.80;;;;;;;;;;5040451;28;20801;-82
2023/03/12 03:05:37;;;;;;;5.70;4.50;;;;;;;;;;5040609;28;20444;-82
2023/03/12 03:08:04;;;;;;;5.20;4.07;;;;;;;;;;5039339;28;20860;-81
2023/03/12 03:10:31;;;;;;;7.18;4.70;;;;;;;;;;5037414;28;20795;-81
2023/03/12 03:12:57;;;;;;;5.10;4.60;;;;;;;;;;5041797;28;20460;-81
2023/03/12 03:15:25;;;;;;;7.18;4.97;;;;;;;;;;5043870;28;20433;-81
2023/03/12 03:17:52;;;;;;;5.82;4.43;;;;;;;;;;5042141;28;20501;-82
2023/03/12 03:20:20;;;;;;;5.72;4.68;;;;;;;;;;5041077;28;20420;-82
2023/03/12 03:22:46;;;;;;;7.40;4.68;;;;;;;;;;5041776;28;20953;-82
2023/03/12 03:25:12;;;;;;;6.95;4.95;;;;;;;;;;5042138;28;20429;-82
2023/03/12 03:27:39;;;;;;;5.53;4.85;;;;;;;;;;5040504;28;20423;-82
2023/03/12 03:30:06;;;;;;;5.65;5.07;;;;;;;;;;5040697;28;20440;-82
2023/03/12 03:32:34;;;;;;;7.63;5.38;;;;;;;;;;5043204;28;20432;-82
2023/03/12 03:35:00;;;;;;;6.70;5.60;;;;;;;;;;5040924;28;20439;-82
2023/03/12 03:37:28;;;;;;;5.85;5.07;;;;;;;;;;5041877;28;20437;-82
2023/03/12 03:39:54;;;;;;;6.70;4.78;;;;;;;;;;5044335;28;20441;-82
2023/03/12 03:42:20;;;;;;;10.02;5.75;;;;;;;;;;5044330;28;20433;-82
2023/03/12 03:44:47;;;;;;;8.10;5.88;;;;;;;;;;5048555;28;20425;-82
2023/03/12 03:47:13;;;;;;;6.85;5.57;;;;;;;;;;5046048;28;20938;-81
2023/03/12 03:49:41;;;;;;;7.73;5.73;;;;;;;;;;5047661;28;20429;-82
2023/03/12 03:52:07;;;;;;;8.77;5.60;;;;;;;;;;5043263;28;20421;-82
2023/03/12 03:54:33;;;;;;;7.43;6.15;;;;;;;;;;5044832;28;20437;-82
2023/03/12 03:57:01;;;;;;;8.57;5.85;;;;;;;;;;5046918;28;20417;-81
2023/03/12 03:59:27;;;;;;;9.93;6.07;;;;;;;;;;5041016;28;20425;-82
2023/03/12 04:01:53;;;;;;;9.82;5.97;;;;;;;;;;5045923;28;20423;-82
2023/03/12 04:04:20;;;;;;;6.80;6.10;;;;;;;;;;5043734;28;20425;-81
2023/03/12 04:06:48;;;;;;;6.93;6.20;;;;;;;;;;5043941;28;20413;-82
2023/03/12 04:09:14;;;;;;;9.40;5.93;;;;;;;;;;5046476;28;20890;-82
2023/03/12 04:11:41;;;;;;;9.60;6.55;;;;;;;;;;5041978;28;20898;-82
2023/03/12 04:14:07;;;;;;;10.70;6.75;;;;;;;;;;5042478;28;20423;-82
2023/03/12 04:16:33;;;;;;;11.53;6.60;;;;;;;;;;5041331;28;20515;-82
2023/03/12 04:19:00;;;;;;;10.60;6.55;;;;;;;;;;5043713;28;20440;-82
2023/03/12 04:21:26;;;;;;;10.77;6.90;;;;;;;;;;5044103;28;20812;-82
2023/03/12 04:23:54;;;;;;;7.72;6.20;;;;;;;;;;5042599;28;20423;-82
2023/03/12 04:26:20;;;;;;;10.32;6.43;;;;;;;;;;5044570;28;20798;-82
2023/03/12 04:28:46;;;;;;;7.13;6.43;;;;;;;;;;5043025;28;20433;-82
2023/03/12 04:31:13;;;;;;;10.10;7.07;;;;;;;;;;5044093;28;20452;-82
2023/03/12 04:33:42;;;;;;;9.77;6.97;;;;;;;;;;5040976;28;20920;-82
2023/03/12 04:36:08;;;;;;;9.30;6.95;;;;;;;;;;5041951;28;20439;-82
2023/03/12 04:38:35;;;;;;;9.53;6.60;;;;;;;;;;5042329;28;20430;-82
2023/03/12 04:41:05;;;;;;;7.47;6.77;;;;;;;;;;5044342;28;20474;-82
2023/03/12 04:43:31;;;;;;;8.88;6.97;;;;;;;;;;5046088;28;20427;-82
2023/03/12 04:45:58;;;;;;;7.80;6.77;;;;;;;;;;5042223;28;20437;-82
2023/03/12 04:48:25;;;;;;;8.05;6.63;;;;;;;;;;5044522;28;20438;-82
2023/03/12 04:50:52;;;;;;;7.82;6.55;;;;;;;;;;5043805;28;20443;-82
2023/03/12 04:53:18;;;;;;;9.85;7.13;;;;;;;;;;5040046;28;20464;-81
2023/03/12 04:55:44;;;;;;;9.40;6.53;;;;;;;;;;5041776;28;21338;-82
2023/03/12 04:58:12;;;;;;;9.57;7.40;;;;;;;;;;5041491;28;20449;-82
2023/03/12 05:00:39;;;;;;;8.40;7.00;;;;;;;;;;5042037;28;20475;-82
2023/03/12 05:03:06;;;;;;;10.82;6.82;;;;;;;;;;5042726;28;20500;-82
2023/03/12 05:05:33;;;;;;;10.13;7.30;;;;;;;;;;5045587;28;20439;-82
2023/03/12 05:07:59;;;;;;;11.18;7.15;;;;;;;;;;5043138;28;20417;-82
2023/03/12 05:10:25;;;;;;;8.68;7.05;;;;;;;;;;5044714;28;21062;-82
2023/03/12 05:12:52;;;;;;;10.98;6.60;;;;;;;;;;5043743;28;20425;-82
2023/03/12 05:15:19;;;;;;;8.15;7.00;;;;;;;;;;5043311;28;20452;-82
2023/03/12 05:17:46;;;;;;;8.93;7.22;;;;;;;;;;5046775;28;20429;-82
2023/03/12 05:20:13;;;;;;;10.70;7.00;;;;;;;;;;5040735;28;20445;-82
2023/03/12 05:22:39;;;;;;;8.00;7.10;;;;;;;;;;5040367;28;20429;-82
2023/03/12 05:25:06;;;;;;;8.88;7.05;;;;;;;;;;5042591;28;20457;-82
2023/03/12 05:27:33;;;;;;;7.93;7.13;;;;;;;;;;5040576;28;20420;-82
2023/03/12 05:29:59;;;;;;;9.93;7.00;;;;;;;;;;5045249;28;20444;-82
2023/03/12 05:32:27;;;;;;;11.90;7.65;;;;;;;;;;5045611;28;20980;-82
2023/03/12 05:34:53;;;;;;;8.93;7.57;;;;;;;;;;5043262;28;20437;-82
2023/03/12 05:37:19;;;;;;;8.38;6.97;;;;;;;;;;5045552;28;20423;-82
2023/03/12 05:39:46;;;;;;;11.00;6.78;;;;;;;;;;5040084;28;20824;-82
2023/03/12 05:42:12;;;;;;;9.90;6.50;;;;;;;;;;5040393;28;20464;-81
2023/03/12 05:44:39;;;;;;;11.60;7.40;;;;;;;;;;5044724;28;20432;-82
2023/03/12 05:47:05;;;;;;;8.47;6.90;;;;;;;;;;5041752;28;20430;-82
2023/03/12 05:49:33;;;;;;;8.50;7.20;;;;;;;;;;5044050;28;20512;-82
2023/03/12 05:52:00;;;;;;;9.32;6.40;;;;;;;;;;5046549;28;20416;-82
2023/03/12 05:54:26;;;;;;;9.60;6.53;;;;;;;;;;5040726;28;20452;-82
2023/03/12 05:56:54;;;;;;;8.90;6.32;;;;;;;;;;5044069;28;20410;-82
2023/03/12 05:59:21;;;;;;;8.40;7.07;;;;;;;;;;5040467;28;20486;-82
2023/03/12 06:01:47;;;;;;;10.07;7.28;;;;;;;;;;5043001;28;20432;-82
2023/03/12 06:04:14;;;;;;;11.70;7.13;;;;;;;;;;5041545;28;20431;-82
2023/03/12 06:06:41;;;;;;;9.77;7.00;;;;;;;;;;5043254;28;20436;-83
2023/03/12 06:09:08;;;;;;;11.10;7.05;;;;;;;;;;5045571;28;20429;-82
2023/03/12 06:11:34;;;;;;;9.10;6.20;;;;;;;;;;5042910;28;20420;-82
2023/03/12 06:14:03;;;;;;;10.40;6.90;;;;;;;;;;5043638;28;20915;-82
2023/03/12 06:16:29;;;;;;;11.25;6.30;;;;;;;;;;5042920;28;20433;-81
2023/03/12 06:18:56;;;;;;;9.95;6.57;;;;;;;;;;5040798;28;20425;-81
2023/03/12 06:21:24;;;;;;;10.38;7.40;;;;;;;;;;5041046;28;20432;-82
2023/03/12 06:23:52;;;;;;;10.23;6.68;;;;;;;;;;5041545;28;20797;-82
2023/03/12 06:26:19;;;;;;;13.57;7.22;;;;;;;;;;5040867;28;21337;-82
2023/03/12 06:28:45;;;;;;;9.75;6.70;;;;;;;;;;5042188;28;20425;-82
2023/03/12 06:31:12;;;;;;;10.65;7.03;;;;;;;;;;5041524;28;20431;-82
2023/03/12 06:33:38;;;;;;;11.98;7.43;;;;;;;;;;5044318;28;20446;-82
2023/03/12 06:36:05;;;;;;;11.95;8.00;;;;;;;;;;5042965;28;20504;-81
2023/03/12 06:38:32;;;;;;;11.50;7.80;;;;;;;;;;5043242;28;20450;-82
2023/03/12 06:41:02;;;;;;;11.15;7.40;;;;;;;;;;5039321;28;20435;-82
2023/03/12 06:43:30;;;;;;;10.68;7.30;;;;;;;;;;5042549;28;20419;-82
2023/03/12 06:45:58;;;;;;;10.73;7.22;;;;;;;;;;5041877;28;20437;-82
2023/03/12 06:48:25;;;;;;;10.88;7.20;;;;;;;;;;5041399;28;20792;-82
2023/03/12 06:50:51;;;;;;;10.48;6.82;;;;;;;;;;5038554;28;20422;-82
2023/03/12 06:53:18;;;;;;;9.90;7.68;;;;;;;;;;5042673;28;20496;-82
2023/03/12 06:55:44;;;;;;;12.00;7.07;;;;;;;;;;5044391;28;20801;-82
2023/03/12 06:58:12;;;;;;;10.20;6.95;;;;;;;;;;5042554;28;20430;-81
2023/03/12 07:00:39;;;;;;;11.48;7.43;;;;;;;;;;5041974;28;20802;-82
2023/03/12 07:03:05;;;;;;;9.25;7.20;;;;;;;;;;5044816;28;20421;-82
2023/03/12 07:05:31;;;;;;;10.23;6.93;;;;;;;;;;5041939;28;20439;-81
2023/03/12 07:07:58;;;;;;;14.35;7.80;;;;;;;;;;5040175;28;20768;-82
2023/03/12 07:10:26;;;;;;;9.00;7.40;;;;;;;;;;5044741;28;20944;-82
2023/03/12 07:12:53;;;;;;;11.57;7.43;;;;;;;;;;5047229;28;20429;-82
2023/03/12 07:15:21;;;;;;;9.83;7.23;;;;;;;;;;5045844;28;20995;-82
2023/03/12 07:17:47;;;;;;;10.23;8.00;;;;;;;;;;5046081;28;20452;-82
2023/03/12 07:20:14;;;;;;;10.25;8.32;;;;;;;;;;5047410;28;20440;-82
2023/03/12 07:22:40;;;;;;;9.90;7.80;;;;;;;;;;5046943;28;20419;-82
2023/03/12 07:25:07;;;;;;;9.93;7.35;;;;;;;;;;5046043;28;20435;-81
2023/03/12 07:27:33;;;;;;;11.73;7.60;;;;;;;;;;5045886;28;20436;-82
2023/03/12 07:29:59;;;;;;;10.55;7.88;;;;;;;;;;5047888;28;20429;-81
2023/03/12 07:32:28;;;;;;;12.88;8.18;;;;;;;;;;5046177;28;20409;-82
2023/03/12 07:34:54;;;;;;;10.35;7.47;;;;;;;;;;5045683;28;20567;-82
2023/03/12 07:37:20;;;;;;;9.35;7.72;;;;;;;;;;5045699;28;20407;-81
2023/03/12 07:39:51;;;;;;;14.38;8.60;;;;;;;;;;5044440;28;20414;-81
2023/03/12 07:42:17;;;;;;;10.93;8.02;;;;;;;;;;5046669;28;20425;-81
2023/03/12 07:44:43;;;;;;;10.90;7.53;;;;;;;;;;5045600;28;20440;-82
2023/03/12 07:47:10;;;;;;;14.05;8.48;;;;;;;;;;5048663;28;20434;-82
2023/03/12 07:49:40;;;;;;;11.45;8.68;;;;;;;;;;5046292;28;20668;-82
2023/03/12 07:52:08;;;;;;;16.52;8.90;;;;;;;;;;5044652;28;20424;-81
2023/03/12 07:54:35;;;;;;;9.50;7.53;;;;;;;;;;5044959;28;20509;-82
2023/03/12 07:57:01;;;;;;;11.63;7.80;;;;;;;;;;5046765;28;20429;-81
2023/03/12 07:59:27;;;;;;;9.98;7.43;;;;;;;;;;5045740;28;20424;-81
2023/03/12 08:01:54;;;;;;;12.57;7.67;;;;;;;;;;5046668;28;20405;-81
2023/03/12 08:04:20;;;;;;;12.35;8.13;;;;;;;;;;5047929;28;20438;-81
2023/03/12 08:06:48;;;;;;;11.90;8.27;;;;;;;;;;5047116;28;20429;-82
2023/03/12 08:09:14;;;;;;;9.93;7.47;;;;;;;;;;5045354;28;20429;-81
2023/03/12 08:11:40;;;;;;;10.97;7.60;;;;;;;;;;5047394;28;20417;-81
2023/03/12 08:14:07;;;;;;;12.38;8.38;;;;;;;;;;5042745;28;20425;-81
2023/03/12 08:16:33;;;;;;;14.35;8.02;;;;;;;;;;5046023;28;20436;-82
2023/03/12 08:18:59;;;;;;;12.50;7.90;;;;;;;;;;5046559;28;20433;-81
2023/03/12 08:21:26;;;;;;;15.77;8.10;;;;;;;;;;5040796;28;20439;-81
2023/03/12 08:23:53;;;;;;;12.30;8.25;;;;;;;;;;5045743;28;20435;-82
2023/03/12 08:26:20;;;;;;;13.55;8.50;;;;;;;;;;5048282;28;20437;-81
2023/03/12 08:28:46;;;;;;;14.80;8.50;;;;;;;;;;5042060;28;20430;-81
2023/03/12 08:31:12;;;;;;;10.80;7.63;;;;;;;;;;5045943;28;20425;-81
2023/03/12 08:33:42;;;;;;;11.30;8.40;;;;;;;;;;5046017;28;20422;-81
2023/03/12 08:36:08;;;;;;;10.95;8.07;;;;;;;;;;5045816;28;20944;-82
2023/03/12 08:38:35;;;;;;;9.63;8.30;;;;;;;;;;5042867;28;20422;-82
2023/03/12 08:41:03;;;;;;;12.43;8.00;;;;;;;;;;5044600;28;20432;-82
2023/03/12 08:43:29;;;;;;;8.18;7.05;;;;;;;;;;5042750;28;20423;-82
2023/03/12 08:45:56;;;;;;;8.63;7.45;;;;;;;;;;5039329;28;20427;-82
2023/03/12 08:48:22;;;;;;;13.23;7.93;;;;;;;;;;5040643;28;20421;-81
2023/03/12 08:50:49;;;;;;;7.55;6.75;;;;;;;;;;5040407;28;20433;-82
2023/03/12 08:53:17;;;;;;;8.30;6.70;;;;;;;;;;5041940;28;21193;-82
2023/03/12 08:55:44;;;;;;;9.35;7.10;;;;;;;;;;5045407;28;20437;-82
2023/03/12 08:58:12;;;;;;;12.82;7.32;;;;;;;;;;5044706;28;20449;-80
2023/03/12 09:00:38;;;;;;;9.07;7.18;;;;;;;;;;5042978;28;20432;-80
2023/03/12 09:03:04;;;;;;;8.90;7.13;;;;;;;;;;5042184;28;20598;-82
2023/03/12 09:05:31;;;;;;;10.70;7.90;;;;;;;;;;5042840;28;20429;-82
2023/03/12 09:07:57;;;;;;;10.57;7.90;;;;;;;;;;5042707;28;20433;-81
2023/03/12 09:10:25;;;;;;;9.70;7.38;;;;;;;;;;5044717;28;20433;-81
2023/03/12 09:12:52;;;;;;;10.80;8.50;;;;;;;;;;5046457;28;20498;-81
2023/03/12 09:15:20;;;;;;;10.48;7.57;;;;;;;;;;5044271;28;20500;-81
2023/03/12 09:17:47;;;;;;;9.52;8.00;;;;;;;;;;5040352;28;20433;-81
2023/03/12 09:20:13;;;;;;;9.75;8.20;;;;;;;;;;5042543;28;20490;-81
2023/03/12 09:22:40;;;;;;;10.10;7.73;;;;;;;;;;5043207;28;20434;-81
2023/03/12 09:25:07;;;;;;;13.33;8.07;;;;;;;;;;5041730;28;20458;-81
2023/03/12 09:27:35;;;;;;;8.90;7.75;;;;;;;;;;5043396;28;20423;-82
2023/03/12 09:30:02;;;;;;;8.70;7.80;;;;;;;;;;5045327;28;20437;-81
2023/03/12 09:32:29;;;;;;;10.20;7.90;;;;;;;;;;5042334;28;20797;-81
2023/03/12 09:34:56;;;;;;;10.70;7.50;;;;;;;;;;5042028;28;20457;-81
2023/03/12 09:37:22;;;;;;;11.10;8.30;;;;;;;;;;5044630;28;20420;-81
2023/03/12 09:39:49;;;;;;;12.35;8.05;;;;;;;;;;5044089;28;20413;-81
2023/03/12 09:42:21;;;;;;;9.20;7.80;;;;;;;;;;5040454;28;20491;-81
2023/03/12 09:44:48;;;;;;;11.60;7.70;;;;;;;;;;5041570;28;20921;-81
2023/03/12 09:47:19;;;;;;;10.93;8.27;;;;;;;;;;5043484;28;20799;-81
2023/03/12 09:49:49;;;;;;;8.30;7.50;;;;;;;;;;5041643;28;20431;-81
2023/03/12 09:52:20;;;;;;;11.13;8.10;;;;;;;;;;5041949;28;20516;-81
2023/03/12 09:54:53;;;;;;;10.45;7.95;;;;;;;;;;5042576;28;20423;-81
2023/03/12 09:57:21;;;;;;;13.27;7.50;;;;;;;;;;5044084;28;20425;-81
2023/03/12 09:59:48;;;;;;;10.53;7.40;;;;;;;;;;5043176;28;20528;-81
2023/03/12 10:02:24;;;;;;;13.88;11.38;;;;;;;;;;5043709;28;20794;-80
2023/03/12 10:04:55;;;;;;;43.58;31.10;;;;;;;;;;5043676;28;20438;-82
2023/03/12 10:07:26;;;;;;;50.33;44.58;;;;;;;;;;5042516;28;20424;-80
2023/03/12 10:10:03;;;;;;;53.88;48.88;;;;;;;;;;5041018;28;20463;-81
2023/03/12 10:12:34;;;;;;;19.35;17.65;;;;;;;;;;5041572;28;21140;-81
2023/03/12 10:15:07;;;;;;;12.65;7.85;;;;;;;;;;5039117;28;20454;-81
2023/03/12 10:17:45;;;;;;;8.48;7.35;;;;;;;;;;5044979;28;20425;-81
2023/03/12 10:20:28;;;;;;;7.88;7.00;;;;;;;;;;5037643;28;20437;-81
2023/03/12 10:23:00;;;;;;;9.07;6.68;;;;;;;;;;5041441;28;21056;-81
2023/03/12 10:25:29;;;;;;;10.07;7.45;;;;;;;;;;5040492;28;20440;-81
2023/03/12 10:27:59;;;;;;;8.13;7.32;;;;;;;;;;5042965;28;20421;-81
2023/03/12 10:30:28;;;;;;;11.55;10.02;;;;;;;;;;5041912;28;20439;-81
2023/03/12 10:32:57;;;;;;;10.60;8.65;;;;;;;;;;5043468;28;20433;-81
2023/03/12 10:35:26;;;;;;;11.13;8.30;;;;;;;;;;5040965;28;20433;-81
2023/03/12 10:37:53;;;;;;;15.82;9.82;;;;;;;;;;5041532;28;20434;-81
2023/03/12 10:40:21;;;;;;;8.43;6.80;;;;;;;;;;5039744;28;20444;-81
2023/03/12 10:42:48;;;;;;;10.63;8.37;;;;;;;;;;5053092;28;20493;-81
2023/03/12 10:45:18;;;;;;;20.63;16.17;;;;;;;;;;5061264;28;20926;-80
2023/03/12 10:47:50;;;;;;;13.80;6.67;;;;;;;;;;5034477;28;20475;-81
2023/03/12 10:50:18;;;;;;;10.23;7.13;;;;;;;;;;5041894;28;20802;-81
2023/03/12 10:52:46;;;;;;;8.63;6.10;;;;;;;;;;5046546;28;20423;-81
2023/03/12 10:55:16;;;;;;;7.80;6.25;;;;;;;;;;5047576;28;20424;-81
2023/03/12 10:57:42;;;;;;;9.20;6.85;;;;;;;;;;5047190;28;20796;-81
2023/03/12 11:00:11;;;;;;;8.98;6.82;;;;;;;;;;5041605;28;20433;-81
2023/03/12 11:02:39;;;;;;;8.45;7.10;;;;;;;;;;5046947;28;20431;-81
2023/03/12 11:05:19;;;;;;;14.32;9.65;;;;;;;;;;5045003;28;20432;-81
2023/03/12 11:07:46;;;;;;;9.63;7.30;;;;;;;;;;5047175;28;20450;-81
2023/03/12 11:10:15;;;;;;;11.65;9.57;;;;;;;;;;5043035;28;20440;-81
2023/03/12 11:12:50;;;;;;;25.43;22.37;;;;;;;;;;5045370;28;20434;-81
2023/03/12 11:15:19;;;;;;;13.60;11.10;;;;;;;;;;5046180;28;20791;-81
2023/03/12 11:17:46;;;;;;;48.42;30.08;;;;;;;;;;5047439;28;20430;-81
2023/03/12 11:20:24;;;;;;;12.68;11.35;;;;;;;;;;5047207;28;20433;-81
2023/03/12 11:22:52;;;;;;;14.45;6.68;;;;;;;;;;5042230;28;20427;-81
2023/03/12 11:25:23;;;;;;;7.53;5.72;;;;;;;;;;5044402;28;20429;-81
2023/03/12 11:27:53;;;;;;;10.50;5.90;;;;;;;;;;5045479;28;20523;-81
2023/03/12 11:30:22;;;;;;;7.22;5.88;;;;;;;;;;5041716;28;20445;-81
2023/03/12 11:32:49;;;;;;;7.50;5.32;;;;;;;;;;5043112;28;20947;-81
2023/03/12 11:35:17;;;;;;;7.78;5.75;;;;;;;;;;5044091;28;20436;-81
2023/03/12 11:37:54;;;;;;;7.82;6.00;;;;;;;;;;5044029;28;20465;-81
2023/03/12 11:40:32;;;;;;;11.80;6.83;;;;;;;;;;5045789;28;20436;-81
2023/03/12 11:43:07;;;;;;;9.73;6.68;;;;;;;;;;5045743;28;20433;-81
2023/03/12 11:45:39;;;;;;;10.45;6.68;;;;;;;;;;5041442;28;20422;-79
2023/03/12 11:48:12;;;;;;;13.30;11.07;;;;;;;;;;5046658;28;20421;-80
2023/03/12 11:50:47;;;;;;;12.45;9.77;;;;;;;;;;5045593;28;20454;-81
2023/03/12 11:53:19;;;;;;;29.33;21.77;;;;;;;;;;5043844;28;20472;-81
2023/03/12 11:55:51;;;;;;;23.40;18.17;;;;;;;;;;5045568;28;20910;-81
2023/03/12 11:58:25;;;;;;;21.60;18.00;;;;;;;;;;5044316;28;20444;-80
2023/03/12 12:00:56;;;;;;;28.70;21.88;;;;;;;;;;5046997;28;20431;-81
2023/03/12 12:03:34;;;;;;;19.98;15.05;;;;;;;;;;5044192;28;20434;-81
2023/03/12 12:06:02;;;;;;;20.92;15.57;;;;;;;;;;5045708;28;20435;-80
2023/03/12 12:08:46;;;;;;;13.50;10.38;;;;;;;;;;5042459;28;20429;-81
2023/03/12 12:11:18;;;;;;;24.88;18.10;;;;;;;;;;5044854;28;20426;-81
2023/03/12 12:13:49;;;;;;;58.20;52.40;;;;;;;;;;5043146;28;20922;-81
2023/03/12 12:16:22;;;;;;;45.20;33.05;;;;;;;;;;5044717;28;20417;-81
2023/03/12 12:18:54;;;;;;;39.72;31.58;;;;;;;;;;5043457;28;20449;-81
2023/03/12 12:21:35;;;;;;;22.58;17.40;;;;;;;;;;5044629;28;20441;-81
2023/03/12 12:24:07;;;;;;;15.82;10.85;;;;;;;;;;5041696;28;20427;-81
2023/03/12 12:26:39;;;;;;;14.65;10.45;;;;;;;;;;5046141;28;20433;-81
2023/03/12 12:29:13;;;;;;;13.18;11.80;;;;;;;;;;5044311;28;20434;-81
2023/03/12 12:31:43;;;;;;;11.53;10.33;;;;;;;;;;5041870;28;20453;-81
2023/03/12 12:34:33;;;;;;;17.02;15.25;;;;;;;;;;5045096;28;20429;-81
2023/03/12 12:37:04;;;;;;;19.65;17.83;;;;;;;;;;4986415;28;20924;-81
2023/03/12 12:39:32;;;;;;;24.70;20.00;;;;;;;;;;5043385;28;20438;-81
2023/03/12 12:42:04;;;;;;;30.95;27.85;;;;;;;;;;5042871;28;20417;-81
2023/03/12 12:44:32;;;;;;;15.32;13.82;;;;;;;;;;5041747;28;20427;-81
2023/03/12 12:47:04;;;;;;;14.23;11.77;;;;;;;;;;5041573;28;20410;-81
2023/03/12 12:49:32;;;;;;;15.50;12.38;;;;;;;;;;5042631;28;20499;-81
2023/03/12 12:52:01;;;;;;;18.15;13.30;;;;;;;;;;5043487;28;20417;-81
2023/03/12 12:54:32;;;;;;;16.25;13.05;;;;;;;;;;5041825;28;20458;-81
2023/03/12 12:57:00;;;;;;;16.88;13.73;;;;;;;;;;5048419;28;20508;-81
2023/03/12 12:59:32;;;;;;;17.10;13.80;;;;;;;;;;5044689;28;20914;-81
2023/03/12 13:02:02;;;;;;;14.45;12.20;;;;;;;;;;5041564;28;20417;-81
2023/03/12 13:04:32;;;;;;;13.40;11.60;;;;;;;;;;5047176;28;20874;-81
2023/03/12 13:07:04;;;;;;;16.10;12.02;;;;;;;;;;5039085;28;20429;-81
2023/03/12 13:09:38;;;;;;;13.63;11.75;;;;;;;;;;5042190;28;20433;-81
2023/03/12 13:12:13;;;;;;;17.40;12.47;;;;;;;;;;5043558;28;20471;-81
2023/03/12 13:14:42;;;;;;;13.50;12.00;;;;;;;;;;5042817;28;20899;-80
2023/03/12 13:17:24;;;;;;;15.27;12.20;;;;;;;;;;5040469;28;20413;-82
2023/03/12 13:19:51;;;;;;;35.58;31.77;;;;;;;;;;5043618;28;20888;-81
2023/03/12 13:22:24;;;;;;;88.32;69.05;;;;;;;;;;5043343;28;20413;-81
2023/03/12 13:24:54;;;;;;;89.90;67.53;;;;;;;;;;5040773;28;20437;-81
2023/03/12 13:27:23;;;;;;;49.35;44.25;;;;;;;;;;5041954;28;20424;-81
2023/03/12 13:29:55;;;;;;;17.17;15.35;;;;;;;;;;5042553;28;20430;-81
2023/03/12 13:32:40;;;;;;;17.13;13.77;;;;;;;;;;5041905;28;20465;-79
2023/03/12 13:35:07;;;;;;;14.10;12.60;;;;;;;;;;5040399;28;20520;-81
2023/03/12 13:37:54;;;;;;;15.70;12.48;;;;;;;;;;5043279;28;20510;-81
2023/03/12 13:40:37;;;;;;;14.57;12.55;;;;;;;;;;5039418;28;20435;-81
2023/03/12 13:43:10;;;;;;;14.30;12.80;;;;;;;;;;5043495;28;20434;-81
2023/03/12 13:45:40;;;;;;;13.85;12.35;;;;;;;;;;5042703;28;20426;-81
2023/03/12 13:48:13;;;;;;;14.27;12.77;;;;;;;;;;5044605;28;20419;-81
2023/03/12 13:50:44;;;;;;;14.25;11.90;;;;;;;;;;5042095;28;20825;-82
2023/03/12 13:53:16;;;;;;;19.17;13.30;;;;;;;;;;5044332;28;20437;-81
2023/03/12 13:55:43;;;;;;;14.20;12.70;;;;;;;;;;5043744;28;21131;-81
2023/03/12 13:58:10;;;;;;;15.00;13.25;;;;;;;;;;5041414;28;20444;-81
2023/03/12 14:00:39;;;;;;;17.10;12.95;;;;;;;;;;5046811;28;20435;-81
2023/03/12 14:03:16;;;;;;;20.10;15.90;;;;;;;;;;5035621;28;20411;-82
2023/03/12 14:05:48;;;;;;;19.50;15.60;;;;;;;;;;5042876;28;20574;-81
2023/03/12 14:08:20;;;;;;;15.93;13.48;;;;;;;;;;5040301;28;20483;-81
2023/03/12 14:10:52;;;;;;;13.75;12.45;;;;;;;;;;5045169;28;20455;-81
2023/03/12 14:13:26;;;;;;;14.30;12.53;;;;;;;;;;5041388;28;20492;-81
2023/03/12 14:15:58;;;;;;;16.85;13.35;;;;;;;;;;5047040;28;20426;-81
2023/03/12 14:18:26;;;;;;;16.33;13.65;;;;;;;;;;5041455;28;20430;-81
2023/03/12 14:20:54;;;;;;;19.40;13.97;;;;;;;;;;5038740;28;20493;-81
2023/03/12 14:23:21;;;;;;;15.38;13.15;;;;;;;;;;5039458;28;20429;-81
2023/03/12 14:25:48;;;;;;;15.93;13.90;;;;;;;;;;5043165;28;20423;-81
2023/03/12 14:28:17;;;;;;;17.50;15.20;;;;;;;;;;5042484;28;20485;-81
2023/03/12 14:30:45;;;;;;;17.50;14.77;;;;;;;;;;5040641;28;20476;-81
2023/03/12 14:33:13;;;;;;;17.45;14.10;;;;;;;;;;5038993;28;20427;-81
2023/03/12 14:35:44;;;;;;;15.07;13.40;;;;;;;;;;5039988;28;20411;-81
2023/03/12 14:38:15;;;;;;;18.05;15.27;;;;;;;;;;5038403;28;20433;-81
2023/03/12 14:40:44;;;;;;;17.80;15.48;;;;;;;;;;5046279;28;20416;-81